Time;durP1;ratioP1;P1;durP2;ratioP2;P2;SDS_P1;SDS_P2;PMS_P1;PMS_P2;Temp;Humidity;BMP_temperature;BMP_pressure;BME280_temperature;BME280_humidity;BME280_pressure;Samples;Min_cycle;Max_cycle;Signal;HPM_P1;HPM_P2
2022/01/21 00:01:06;;;;;;;13.35;4.70;;;;;;;3.57;67.10;103343.75;5104513;28;20124;-69
2022/01/21 00:03:31;;;;;;;13.35;5.07;;;;;;;3.59;67.00;103347.25;5108003;28;20038;-69
2022/01/21 00:05:56;;;;;;;20.20;4.85;;;;;;;3.57;66.71;103341.00;5101760;28;20387;-69
2022/01/21 00:08:22;;;;;;;18.23;5.18;;;;;;;3.56;66.65;103341.16;5105566;28;20023;-69
2022/01/21 00:10:47;;;;;;;20.15;4.78;;;;;;;3.52;66.84;103345.22;5100826;28;20466;-69
2022/01/21 00:13:22;;;;;;;18.88;5.57;;;;;;;3.48;67.15;103350.13;5108353;28;20043;-70
2022/01/21 00:15:47;;;;;;;19.30;5.32;;;;;;;3.45;67.06;103344.94;5105708;28;20144;-71
2022/01/21 00:18:13;;;;;;;16.20;5.22;;;;;;;3.44;67.11;103354.19;5102996;28;20471;-70
2022/01/21 00:31:34;;;;;;;14.13;4.55;;;;;;;3.40;67.19;103352.75;5103602;28;20046;-69
2022/01/21 00:34:00;;;;;;;19.40;4.43;;;;;;;3.41;67.31;103343.47;5104599;28;20490;-69
2022/01/21 00:36:25;;;;;;;15.10;4.38;;;;;;;3.44;67.49;103348.69;5110265;28;20039;-69
2022/01/21 00:38:53;;;;;;;16.13;4.88;;;;;;;3.44;66.75;103340.47;5112030;28;20333;-69
2022/01/21 00:41:22;;;;;;;17.50;4.38;;;;;;;3.42;67.39;103337.00;5109169;28;20023;-69
2022/01/21 00:43:47;;;;;;;17.85;4.88;;;;;;;3.41;67.56;103332.50;5092721;28;20433;-69
2022/01/21 00:46:13;;;;;;;17.27;4.22;;;;;;;3.43;67.31;103336.84;5092807;28;20024;-69
2022/01/21 00:48:39;;;;;;;12.30;4.13;;;;;;;3.39;67.23;103340.91;5105898;28;20032;-69
2022/01/21 00:51:05;;;;;;;13.52;4.25;;;;;;;3.32;66.69;103339.75;5105596;28;20485;-69
2022/01/21 00:53:31;;;;;;;14.68;3.92;;;;;;;3.36;67.00;103341.19;5111453;28;20050;-69
2022/01/21 00:55:56;;;;;;;12.68;4.10;;;;;;;3.34;67.39;103337.72;5099315;28;20044;-69
2022/01/21 00:58:21;;;;;;;14.60;4.50;;;;;;;3.33;67.44;103348.84;5091453;28;20074;-69
2022/01/21 01:00:47;;;;;;;13.63;3.97;;;;;;;3.29;67.39;103340.00;5100035;28;20024;-69
2022/01/21 01:03:14;;;;;;;20.48;4.57;;;;;;;3.23;67.12;103348.84;5092439;28;20085;-69
2022/01/21 01:05:39;;;;;;;17.95;4.95;;;;;;;3.25;66.81;103352.28;5092135;28;20059;-69
2022/01/21 01:08:05;;;;;;;16.27;4.93;;;;;;;3.21;67.62;103359.09;5092608;28;20447;-69
2022/01/21 01:19:56;;;;;;;13.55;4.50;;;;;;;3.15;67.44;103357.78;5091472;28;20040;-69
2022/01/21 01:21:34;;;;;;;12.65;4.28;;;;;;;3.15;67.71;103341.31;5106103;28;20070;-69
2022/01/21 01:29:08;;;;;;;15.52;4.60;;;;;;;3.13;68.13;103331.50;5091551;28;20433;-69
2022/01/21 01:31:34;;;;;;;14.68;4.07;;;;;;;3.12;67.33;103343.50;5106391;28;20031;-69
2022/01/21 01:34:01;;;;;;;15.25;4.13;;;;;;;3.07;67.82;103338.44;5097099;28;20031;-69
2022/01/21 01:36:26;;;;;;;13.55;3.67;;;;;;;3.07;67.68;103332.94;5090363;28;20066;-69
2022/01/21 01:39:14;;;;;;;17.98;5.10;;;;;;;3.05;68.12;103337.69;5100644;28;20466;-69
2022/01/21 01:41:46;;;;;;;15.10;3.53;;;;;;;3.05;68.07;103337.69;5106396;28;20020;-69
2022/01/21 01:49:40;;;;;;;14.98;3.53;;;;;;;3.02;68.16;103340.72;5094564;28;20089;-69
2022/01/21 01:52:14;;;;;;;13.55;3.80;;;;;;;3.02;68.39;103332.47;5106431;28;20031;-69
2022/01/21 01:54:47;;;;;;;16.25;4.20;;;;;;;3.03;67.81;103336.13;5102028;28;20664;-69
2022/01/21 01:57:12;;;;;;;14.35;3.50;;;;;;;3.01;67.69;103329.91;5090607;28;20065;-69
2022/01/21 01:59:38;;;;;;;15.07;3.95;;;;;;;3.03;67.28;103327.91;5095125;28;20019;-69
2022/01/21 02:02:09;;;;;;;15.13;3.88;;;;;;;3.04;67.51;103324.13;5094278;28;20032;-69
2022/01/21 02:04:34;;;;;;;15.35;3.78;;;;;;;3.00;67.36;103329.03;5090142;28;20036;-69
2022/01/21 02:06:59;;;;;;;14.60;3.92;;;;;;;3.05;67.73;103323.97;5090683;28;20569;-69
2022/01/21 02:09:25;;;;;;;9.52;3.53;;;;;;;3.05;68.06;103325.84;5090319;28;20040;-69
2022/01/21 02:11:51;;;;;;;8.70;3.33;;;;;;;3.04;68.06;103335.09;5090197;28;20517;-69
2022/01/21 02:14:22;;;;;;;13.82;3.78;;;;;;;3.00;67.77;103325.44;5094360;28;20035;-69
2022/01/21 02:22:16;;;;;;;14.38;3.75;;;;;;;3.00;68.13;103334.53;5103947;28;20128;-69
2022/01/21 02:24:51;;;;;;;16.00;3.75;;;;;;;2.97;67.72;103328.44;5110256;28;20028;-69
2022/01/21 02:27:17;;;;;;;11.93;3.20;;;;;;;2.97;67.86;103339.41;5095926;28;20032;-69
2022/01/21 02:29:47;;;;;;;14.85;2.63;;;;;;;2.93;67.40;103328.72;5107146;28;20291;-69
2022/01/21 02:32:12;;;;;;;12.20;2.83;;;;;;;2.89;68.24;103324.53;5097630;28;20072;-69
2022/01/21 02:34:38;;;;;;;11.88;2.92;;;;;;;2.88;68.13;103327.44;5104634;28;20078;-69
2022/01/21 02:37:04;;;;;;;11.77;3.05;;;;;;;2.90;67.85;103326.25;5111967;28;20031;-69
2022/01/21 02:39:29;;;;;;;8.40;2.83;;;;;;;2.89;68.53;103326.41;5098688;28;20042;-69
2022/01/21 02:41:55;;;;;;;14.15;3.28;;;;;;;2.90;67.98;103322.66;5095385;28;20089;-69
2022/01/21 02:44:20;;;;;;;14.13;2.97;;;;;;;2.89;67.68;103320.94;5094464;28;20036;-69
2022/01/21 02:46:47;;;;;;;8.20;2.53;;;;;;;2.84;68.24;103325.97;5099798;28;20106;-69
2022/01/21 02:49:13;;;;;;;9.90;2.72;;;;;;;2.84;67.80;103332.31;5103608;28;20058;-67
2022/01/21 02:51:38;;;;;;;10.52;2.92;;;;;;;2.88;67.71;103332.91;5100747;28;20048;-67
2022/01/21 02:54:04;;;;;;;15.30;3.10;;;;;;;2.84;68.53;103325.97;5098041;28;20023;-67
2022/01/21 02:56:37;;;;;;;12.23;3.03;;;;;;;2.85;67.84;103335.94;5109361;28;20120;-67
2022/01/21 02:59:04;;;;;;;11.05;2.90;;;;;;;2.84;68.37;103339.69;5105029;28;20016;-67
2022/01/21 03:01:32;;;;;;;7.85;2.88;;;;;;;2.81;68.36;103343.56;5103653;28;20428;-67
2022/01/21 03:03:58;;;;;;;15.20;3.42;;;;;;;2.79;68.24;103336.47;5102458;28;20032;-67
2022/01/21 03:06:23;;;;;;;18.25;3.53;;;;;;;2.81;68.49;103338.09;5093444;28;20032;-67
2022/01/21 03:08:51;;;;;;;14.90;3.15;;;;;;;2.78;68.59;103340.25;5094646;28;20571;-69
2022/01/21 03:11:16;;;;;;;12.20;3.55;;;;;;;2.78;68.00;103345.72;5093680;28;20032;-69
2022/01/21 03:13:43;;;;;;;19.02;3.67;;;;;;;2.76;68.60;103339.53;5098096;28;20494;-69
2022/01/21 03:16:08;;;;;;;10.48;3.40;;;;;;;2.74;68.09;103339.66;5099339;28;20024;-69
2022/01/21 03:18:34;;;;;;;10.63;3.10;;;;;;;2.76;68.02;103339.53;5097087;28;20805;-69
2022/01/21 03:20:59;;;;;;;13.20;3.42;;;;;;;2.77;68.43;103347.63;5095007;28;20028;-70
2022/01/21 03:23:27;;;;;;;13.65;3.40;;;;;;;2.75;68.63;103344.16;5110855;28;20036;-69
2022/01/21 03:25:52;;;;;;;17.23;3.40;;;;;;;2.74;68.72;103355.25;5109571;28;20367;-69
2022/01/21 03:28:17;;;;;;;14.18;3.25;;;;;;;2.72;67.93;103341.69;5113649;28;20050;-69
2022/01/21 03:30:43;;;;;;;12.50;3.20;;;;;;;2.72;68.98;103352.66;5093683;28;20035;-69
2022/01/21 03:33:08;;;;;;;18.92;3.70;;;;;;;2.70;68.94;103357.41;5104942;28;20035;-69
2022/01/21 03:35:34;;;;;;;12.07;3.28;;;;;;;2.71;68.42;103361.88;5100713;28;20114;-69
2022/01/21 03:37:59;;;;;;;11.32;3.35;;;;;;;2.72;69.07;103360.03;5096132;28;20089;-69
2022/01/21 03:40:24;;;;;;;14.73;3.20;;;;;;;2.72;69.08;103357.28;5109490;28;20028;-70
2022/01/21 03:42:50;;;;;;;14.80;3.42;;;;;;;2.70;68.75;103361.00;5108978;28;20036;-69
2022/01/21 03:45:16;;;;;;;12.05;3.13;;;;;;;2.72;69.01;103368.25;5110303;28;20032;-69
2022/01/21 03:47:42;;;;;;;15.63;4.35;;;;;;;2.70;68.64;103357.41;5093883;28;20107;-69
2022/01/21 03:50:21;;;;;;;10.30;2.90;;;;;;;2.72;68.98;103352.66;5092166;28;20047;-69
2022/01/21 03:52:47;;;;;;;17.73;3.50;;;;;;;2.71;68.41;103359.13;5105941;28;20407;-69
2022/01/21 03:55:12;;;;;;;14.20;3.55;;;;;;;2.69;68.57;103358.41;5092483;28;20048;-69
2022/01/21 03:57:37;;;;;;;13.20;3.17;;;;;;;2.69;69.01;103359.28;5092009;28;20051;-69
2022/01/21 04:00:05;;;;;;;11.45;3.10;;;;;;;2.69;68.73;103362.03;5092528;28;20024;-69
2022/01/21 04:02:31;;;;;;;10.88;3.33;;;;;;;2.69;68.43;103359.28;5111199;28;20084;-69
2022/01/21 04:04:56;;;;;;;10.23;3.08;;;;;;;2.69;68.78;103359.28;5111989;28;20031;-69
2022/01/21 04:07:21;;;;;;;14.63;3.42;;;;;;;2.65;68.65;103367.94;5108614;28;20118;-69
2022/01/21 04:09:47;;;;;;;10.77;2.75;;;;;;;2.66;69.09;103358.69;5092146;28;20509;-69
2022/01/21 04:12:12;;;;;;;12.90;3.00;;;;;;;2.66;69.49;103359.56;5092413;28;20061;-69
2022/01/21 04:14:38;;;;;;;11.27;3.55;;;;;;;2.64;68.78;103367.06;5092121;28;20040;-69
2022/01/21 04:17:03;;;;;;;11.88;2.95;;;;;;;2.64;69.21;103352.50;5093499;28;20093;-69
2022/01/21 04:19:29;;;;;;;9.45;2.92;;;;;;;2.62;68.60;103352.59;5091654;28;20121;-69
2022/01/21 04:21:54;;;;;;;9.38;3.38;;;;;;;2.63;69.23;103353.47;5109079;28;20027;-69
2022/01/21 04:24:19;;;;;;;10.30;2.72;;;;;;;2.64;68.48;103350.63;5108957;28;20435;-69
2022/01/21 04:26:44;;;;;;;13.65;3.20;;;;;;;2.60;68.51;103345.56;5091297;28;20032;-69
2022/01/21 04:29:10;;;;;;;9.30;2.80;;;;;;;2.61;68.68;103356.38;5092255;28;20028;-69
2022/01/21 04:31:35;;;;;;;10.02;2.83;;;;;;;2.60;69.10;103353.78;5091999;28;20015;-69
2022/01/21 04:34:00;;;;;;;10.48;2.55;;;;;;;2.62;69.10;103363.59;5091091;28;20024;-69
2022/01/21 04:36:25;;;;;;;11.73;3.25;;;;;;;2.61;68.92;103347.28;5100048;28;20043;-69
2022/01/21 04:38:54;;;;;;;11.60;2.47;;;;;;;2.62;68.88;103352.59;5101806;28;20051;-69
2022/01/21 04:41:38;;;;;;;15.00;2.83;;;;;;;2.62;69.34;103347.13;5101022;28;20069;-69
2022/01/21 04:49:32;;;;;;;9.52;2.53;;;;;;;2.57;69.50;103359.53;5111841;28;20521;-69
2022/01/21 04:52:03;;;;;;;11.60;2.50;;;;;;;2.59;68.97;103350.16;5092899;28;20028;-69
2022/01/21 04:54:33;;;;;;;11.20;2.72;;;;;;;2.56;69.30;103355.94;5094660;28;20035;-68
2022/01/21 04:57:00;;;;;;;6.53;2.90;;;;;;;2.59;69.31;103344.66;5103865;28;20375;-68
2022/01/21 04:59:25;;;;;;;9.27;2.28;;;;;;;2.60;69.84;103349.16;5094037;28;20575;-69
2022/01/21 05:01:52;;;;;;;10.07;2.55;;;;;;;2.61;69.85;103350.88;5091652;28;20111;-69
2022/01/21 05:04:19;;;;;;;10.82;2.50;;;;;;;2.59;69.54;103352.03;5093209;28;20024;-69
2022/01/21 05:06:44;;;;;;;14.55;3.25;;;;;;;2.59;69.61;103344.66;5093584;28;20440;-69
2022/01/21 05:09:09;;;;;;;9.93;2.33;;;;;;;2.61;70.07;103322.59;5090966;28;20055;-69
2022/01/21 05:11:37;;;;;;;11.32;2.70;;;;;;;2.59;70.19;103330.94;5102077;28;20475;-69
2022/01/21 05:14:18;;;;;;;15.02;2.35;;;;;;;2.60;70.27;103331.84;5090781;28;20097;-69
2022/01/21 05:16:46;;;;;;;12.20;2.80;;;;;;;2.63;70.65;103340.66;5091928;28;20110;-69
2022/01/21 05:19:15;;;;;;;12.70;2.90;;;;;;;2.63;70.06;103343.41;5100413;28;20047;-69
2022/01/21 05:21:41;;;;;;;8.52;2.30;;;;;;;2.68;69.82;103335.63;5096733;28;20073;-69
2022/01/21 05:24:06;;;;;;;15.15;2.85;;;;;;;2.66;69.87;103340.34;5102655;28;20043;-70
2022/01/21 05:26:40;;;;;;;14.88;3.08;;;;;;;2.66;69.78;103343.09;5090943;28;20032;-69
2022/01/21 05:29:08;;;;;;;11.05;2.72;;;;;;;2.65;69.64;103349.59;5091554;28;20046;-69
2022/01/21 05:31:33;;;;;;;12.63;2.65;;;;;;;2.69;70.58;103350.19;5102130;28;20040;-69
2022/01/21 05:33:58;;;;;;;8.23;2.80;;;;;;;2.66;70.55;103348.59;5102909;28;20036;-69
2022/01/21 05:36:26;;;;;;;9.25;3.17;;;;;;;2.64;70.57;103349.75;5107328;28;20465;-68
2022/01/21 05:38:51;;;;;;;8.32;3.08;;;;;;;2.60;70.76;103354.63;5105782;28;20035;-68
2022/01/21 05:41:19;;;;;;;9.70;3.15;;;;;;;2.62;70.38;103357.22;5107774;28;20019;-69
2022/01/21 05:43:46;;;;;;;9.68;2.72;;;;;;;2.58;69.96;103358.53;5099891;28;20516;-68
2022/01/21 05:48:56;;;;;;;10.30;3.22;;;;;;;2.61;70.69;103350.88;5102321;28;20052;-69
2022/01/21 05:51:22;;;;;;;8.32;3.20;;;;;;;2.61;70.42;103350.88;5096450;28;20040;-68
2022/01/21 05:53:47;;;;;;;9.35;3.35;;;;;;;2.63;70.02;103342.50;5113489;28;20020;-68
2022/01/21 05:56:13;;;;;;;13.27;3.80;;;;;;;2.59;70.88;103349.28;5100532;28;20158;-68
2022/01/21 05:58:38;;;;;;;14.95;3.85;;;;;;;2.58;70.28;103351.16;5116376;28;20028;-69
2022/01/21 06:01:04;;;;;;;16.73;3.70;;;;;;;2.59;70.15;103357.50;5099458;28;20028;-68
2022/01/21 06:03:33;;;;;;;7.03;3.28;;;;;;;2.60;70.85;103359.25;5108060;28;20096;-68
2022/01/21 06:05:59;;;;;;;10.18;3.85;;;;;;;2.59;70.94;103363.84;5104864;28;20181;-69
2022/01/21 06:08:24;;;;;;;17.90;4.47;;;;;;;2.59;70.51;103363.84;5120985;27;20448;-68
2022/01/21 06:10:49;;;;;;;10.32;4.03;;;;;;;2.61;71.01;103361.00;5109759;27;20027;-68
2022/01/21 06:13:17;;;;;;;15.15;3.97;;;;;;;2.61;71.21;103356.38;5109774;28;20035;-69
2022/01/21 06:15:44;;;;;;;14.02;4.25;;;;;;;2.62;70.60;103363.59;5112178;28;20028;-68
2022/01/21 06:18:10;;;;;;;11.15;4.05;;;;;;;2.61;70.34;103374.69;5102738;28;20108;-69
2022/01/21 06:20:35;;;;;;;11.82;4.72;;;;;;;2.60;70.57;103376.56;5103838;28;20175;-69
2022/01/21 06:23:01;;;;;;;14.40;5.18;;;;;;;2.60;70.08;103375.72;5094911;28;20032;-69
2022/01/21 06:25:26;;;;;;;12.80;4.55;;;;;;;2.57;70.99;103378.72;5108527;28;20035;-70
2022/01/21 06:27:51;;;;;;;12.57;4.80;;;;;;;2.60;71.26;103375.72;5105286;28;20035;-70
2022/01/21 06:30:16;;;;;;;17.85;5.00;;;;;;;2.57;70.52;103382.34;5105766;28;20144;-67
2022/01/21 06:32:42;;;;;;;14.25;4.68;;;;;;;2.55;70.73;103386.22;5106596;28;20402;-68
2022/01/21 06:35:11;;;;;;;15.68;5.05;;;;;;;2.51;71.03;103398.47;5107023;28;20039;-67
2022/01/21 06:37:37;;;;;;;14.35;4.70;;;;;;;2.52;70.79;103394.72;5108204;28;20478;-66
2022/01/21 06:40:04;;;;;;;14.23;4.65;;;;;;;2.53;71.51;103400.06;5114044;28;20042;-68
2022/01/21 06:42:30;;;;;;;13.80;4.88;;;;;;;2.54;70.84;103404.53;5099431;28;20396;-68
2022/01/21 06:44:55;;;;;;;12.57;4.65;;;;;;;2.56;70.88;103413.50;5094545;28;20035;-67
2022/01/21 06:47:20;;;;;;;15.82;4.90;;;;;;;2.57;71.47;103415.22;5104726;28;20046;-67
2022/01/21 06:49:46;;;;;;;10.82;5.00;;;;;;;2.61;71.69;103411.22;5098171;28;20486;-67
2022/01/21 06:52:12;;;;;;;13.00;5.28;;;;;;;2.66;71.86;103419.00;5099624;28;20036;-68
2022/01/21 06:54:37;;;;;;;14.85;5.78;;;;;;;2.66;71.83;103408.91;5093305;28;20079;-68
2022/01/21 06:57:03;;;;;;;12.38;4.78;;;;;;;2.66;71.78;103410.78;5105409;28;20359;-67
2022/01/21 06:59:29;;;;;;;12.57;4.82;;;;;;;2.68;71.41;103417.88;5102704;27;20047;-67
2022/01/21 07:01:54;;;;;;;17.40;5.35;;;;;;;2.70;71.54;103415.84;5101307;28;20094;-66
2022/01/21 07:04:19;;;;;;;13.90;5.50;;;;;;;2.74;71.39;103418.31;5104535;28;20466;-66
2022/01/21 07:06:44;;;;;;;14.32;5.30;;;;;;;2.77;71.90;103416.19;5094431;28;20077;-69
2022/01/21 07:09:10;;;;;;;11.68;5.22;;;;;;;2.78;71.82;103428.00;5100596;28;20032;-68
2022/01/21 07:11:35;;;;;;;12.88;5.25;;;;;;;2.80;71.46;103439.72;5095776;28;20028;-69
2022/01/21 07:14:00;;;;;;;14.02;6.13;;;;;;;2.77;71.52;103440.00;5102861;28;20482;-68
2022/01/21 07:16:25;;;;;;;10.13;5.47;;;;;;;2.77;71.60;103440.84;5107548;28;20036;-67
2022/01/21 07:18:51;;;;;;;15.40;5.70;;;;;;;2.81;72.24;103438.72;5113603;28;20039;-66
2022/01/21 07:21:16;;;;;;;16.25;6.13;;;;;;;2.82;72.11;103440.44;5096958;28;20070;-67
2022/01/21 07:23:41;;;;;;;12.52;6.05;;;;;;;2.82;72.38;103438.56;5099254;27;20433;-65
2022/01/21 07:26:07;;;;;;;11.23;5.50;;;;;;;2.81;72.54;103434.09;5105617;28;20039;-65
2022/01/21 07:28:33;;;;;;;13.60;6.35;;;;;;;2.83;72.08;103437.56;5108710;28;20027;-65
2022/01/21 07:30:58;;;;;;;12.60;5.97;;;;;;;2.84;72.17;103427.47;5107096;28;20505;-65
2022/01/21 07:33:24;;;;;;;10.90;6.32;;;;;;;2.85;72.27;103445.66;5106719;28;20036;-65
2022/01/21 07:35:49;;;;;;;10.32;5.63;;;;;;;2.84;71.83;103452.16;5101071;28;20032;-66
2022/01/21 07:38:14;;;;;;;21.92;7.38;;;;;;;2.86;72.59;103458.34;5108873;28;20082;-66
2022/01/21 07:40:40;;;;;;;20.95;7.50;;;;;;;2.91;72.42;103456.09;5094619;28;20031;-66
2022/01/21 07:43:06;;;;;;;18.42;6.55;;;;;;;2.92;71.99;103460.56;5102254;28;20036;-66
2022/01/21 07:45:32;;;;;;;17.55;6.30;;;;;;;2.93;72.58;103452.19;5105051;28;20032;-66
2022/01/21 07:47:57;;;;;;;16.67;6.60;;;;;;;2.98;72.19;103451.75;5105966;28;20061;-66
2022/01/21 07:50:23;;;;;;;17.52;6.20;;;;;;;3.00;72.41;103440.66;5101715;28;20512;-69
2022/01/21 07:52:48;;;;;;;19.50;6.63;;;;;;;2.95;72.63;103452.91;5110313;28;20490;-66
2022/01/21 07:55:13;;;;;;;11.57;5.60;;;;;;;2.98;72.00;103457.25;5109921;27;20048;-65
2022/01/21 07:57:39;;;;;;;13.15;5.45;;;;;;;3.03;71.86;103465.09;5102173;28;20136;-67
2022/01/21 08:00:05;;;;;;;16.55;6.32;;;;;;;3.04;72.26;103455.84;5106341;28;20057;-66
2022/01/21 08:02:31;;;;;;;14.90;6.45;;;;;;;3.01;71.83;103446.00;5107398;28;20031;-67
2022/01/21 08:04:57;;;;;;;11.63;5.50;;;;;;;2.98;72.34;103427.06;5098485;28;20034;-66
2022/01/21 08:07:23;;;;;;;18.27;5.78;;;;;;;2.98;72.57;103428.94;5106081;28;20505;-63
2022/01/21 08:09:49;;;;;;;13.98;5.63;;;;;;;2.97;72.20;103436.31;5106715;28;20027;-65
2022/01/21 08:12:16;;;;;;;13.15;5.55;;;;;;;3.04;74.03;103428.41;5098451;28;20028;-64
2022/01/21 08:14:42;;;;;;;12.88;5.75;;;;;;;2.99;72.74;103430.66;5098858;28;20042;-67
2022/01/21 08:17:07;;;;;;;11.30;5.53;;;;;;;3.00;72.60;103430.53;5105014;28;20024;-67
2022/01/21 08:19:33;;;;;;;8.18;5.15;;;;;;;3.00;71.79;103425.06;5110103;28;20046;-68
2022/01/21 08:21:58;;;;;;;10.85;5.60;;;;;;;3.00;71.77;103429.69;5112098;28;20027;-68
2022/01/21 08:24:24;;;;;;;12.13;5.45;;;;;;;3.04;72.42;103423.78;5111700;28;20044;-68
2022/01/21 08:26:49;;;;;;;14.57;5.47;;;;;;;3.04;71.91;103426.50;5106343;28;20030;-66
2022/01/21 08:29:14;;;;;;;11.77;5.38;;;;;;;3.03;71.93;103411.06;5095340;28;20071;-66
2022/01/21 08:31:39;;;;;;;10.48;5.80;;;;;;;3.03;72.11;103416.56;5092696;28;20117;-66
2022/01/21 08:34:05;;;;;;;11.80;5.90;;;;;;;3.03;72.32;103411.06;5091342;28;20663;-66
2022/01/21 08:36:30;;;;;;;11.32;5.15;;;;;;;3.06;72.17;103416.25;5093485;28;20059;-67
2022/01/21 08:38:56;;;;;;;9.85;5.78;;;;;;;3.04;72.38;103432.00;5111553;28;20483;-66
2022/01/21 08:41:21;;;;;;;10.80;6.28;;;;;;;3.05;72.06;103430.13;5102844;28;20032;-66
2022/01/21 08:43:47;;;;;;;14.70;6.13;;;;;;;3.06;71.98;103443.69;5091630;28;20036;-66
2022/01/21 08:46:12;;;;;;;10.70;5.80;;;;;;;3.06;72.66;103438.19;5090373;28;20035;-66
2022/01/21 08:48:38;;;;;;;9.65;6.45;;;;;;;3.06;72.55;103432.72;5097656;28;20109;-66
2022/01/21 08:51:09;;;;;;;13.88;6.38;;;;;;;3.05;72.61;103433.72;5107072;28;20088;-66
2022/01/21 08:53:38;;;;;;;12.20;5.65;;;;;;;3.07;72.44;103434.47;5111040;28;20019;-66
2022/01/21 08:56:15;;;;;;;16.35;6.05;;;;;;;3.13;72.52;103446.75;5095598;28;20093;-66
2022/01/21 08:58:42;;;;;;;12.52;5.47;;;;;;;3.12;72.18;103443.13;5092568;28;20730;-66
2022/01/21 09:01:09;;;;;;;10.65;5.38;;;;;;;3.16;72.75;103444.59;5091010;28;20015;-66
2022/01/21 09:03:39;;;;;;;13.63;5.30;;;;;;;3.19;73.15;103448.94;5091790;28;20044;-66
2022/01/21 09:06:05;;;;;;;16.60;5.43;;;;;;;3.26;72.42;103441.00;5091390;28;20028;-66
2022/01/21 09:08:30;;;;;;;12.00;5.50;;;;;;;3.29;72.45;103444.31;5101316;28;20498;-67
2022/01/21 09:10:58;;;;;;;10.15;5.10;;;;;;;3.30;72.79;103420.47;5091557;28;20036;-66
2022/01/21 09:13:26;;;;;;;8.77;4.60;;;;;;;3.34;73.07;103413.69;5100834;28;20543;-66
2022/01/21 09:15:52;;;;;;;11.32;4.53;;;;;;;3.34;72.63;103405.47;5111767;28;20474;-66
2022/01/21 09:18:19;;;;;;;9.68;4.43;;;;;;;3.37;72.78;103405.19;5099207;28;20106;-66
2022/01/21 09:20:46;;;;;;;9.73;4.03;;;;;;;3.39;73.11;103404.03;5090694;28;20701;-67
2022/01/21 09:23:11;;;;;;;13.20;4.40;;;;;;;3.42;72.81;103398.28;5108788;28;20035;-66
2022/01/21 09:25:36;;;;;;;10.00;4.72;;;;;;;3.47;73.34;103410.69;5111799;28;20104;-66
2022/01/21 09:28:02;;;;;;;9.07;4.60;;;;;;;3.48;72.63;103409.69;5110459;28;20040;-66
2022/01/21 09:30:28;;;;;;;7.60;4.28;;;;;;;3.51;72.83;103409.41;5093981;28;20032;-67
2022/01/21 09:32:54;;;;;;;10.57;4.72;;;;;;;3.53;72.86;103410.97;5091282;28;20378;-66
2022/01/21 09:35:19;;;;;;;11.35;4.50;;;;;;;3.57;73.49;103414.28;5101819;28;20026;-66
2022/01/21 09:37:45;;;;;;;10.70;4.60;;;;;;;3.65;72.69;103415.31;5111627;28;20024;-66
2022/01/21 09:40:11;;;;;;;9.43;4.22;;;;;;;3.68;72.95;103417.75;5092331;28;20495;-67
2022/01/21 09:42:37;;;;;;;11.18;4.55;;;;;;;3.76;72.69;103428.03;5090701;28;20031;-66
2022/01/21 09:45:08;;;;;;;12.02;4.38;;;;;;;3.87;72.91;103427.88;5096543;28;20028;-66
2022/01/21 09:47:44;;;;;;;10.03;3.90;;;;;;;4.23;76.22;103427.25;5104796;28;20029;-66
2022/01/21 09:50:11;;;;;;;15.13;4.40;;;;;;;4.44;73.00;103433.41;5112674;28;20085;-66
2022/01/21 09:52:37;;;;;;;12.07;4.35;;;;;;;4.59;72.01;103433.78;5108715;28;20028;-66
2022/01/21 09:55:04;;;;;;;9.95;4.18;;;;;;;4.71;71.72;103429.84;5104316;28;20127;-66
2022/01/21 09:57:29;;;;;;;13.27;4.30;;;;;;;4.88;71.31;103439.19;5113688;28;20067;-68
2022/01/21 09:59:55;;;;;;;10.88;3.95;;;;;;;4.94;71.01;103433.06;5106259;28;20047;-66
2022/01/21 10:02:26;;;;;;;13.98;4.20;;;;;;;5.03;70.99;103440.44;5101076;28;20031;-66
2022/01/21 10:04:52;;;;;;;13.10;4.40;;;;;;;5.10;70.50;103444.28;5094144;28;20123;-66
2022/01/21 10:07:20;;;;;;;11.95;4.18;;;;;;;5.17;70.54;103453.66;5094491;28;20558;-66
2022/01/21 10:09:47;;;;;;;9.50;4.13;;;;;;;5.28;70.34;103451.72;5102240;28;20036;-67
2022/01/21 10:12:13;;;;;;;11.13;4.18;;;;;;;5.40;69.94;103458.75;5108090;28;20421;-66
2022/01/21 10:14:39;;;;;;;9.55;4.18;;;;;;;5.51;70.17;103464.03;5110901;28;20110;-66
2022/01/21 10:17:05;;;;;;;13.48;4.30;;;;;;;5.62;70.26;103466.56;5114067;28;20442;-66
2022/01/21 10:19:36;;;;;;;11.90;4.00;;;;;;;5.67;69.70;103477.13;5100536;28;20438;-66
2022/01/21 10:22:07;;;;;;;11.70;4.00;;;;;;;5.63;70.06;103479.31;5094783;28;20208;-66
2022/01/21 10:24:34;;;;;;;14.70;3.85;;;;;;;5.62;70.01;103482.25;5114351;28;20036;-67
2022/01/21 10:27:00;;;;;;;8.82;3.45;;;;;;;5.57;69.62;103479.91;5113586;28;20024;-66
2022/01/21 10:29:40;;;;;;;14.52;3.60;;;;;;;5.53;69.66;103480.41;5095606;28;20052;-66
2022/01/21 10:32:07;;;;;;;12.82;3.78;;;;;;;5.45;69.95;103481.16;5097607;28;20155;-67
2022/01/21 10:34:44;;;;;;;14.50;4.35;;;;;;;5.54;70.47;103474.75;5094478;28;20060;-66
2022/01/21 10:37:36;;;;;;;16.58;4.03;;;;;;;5.74;70.89;103482.84;5094333;28;20034;-66
2022/01/21 10:40:04;;;;;;;15.18;4.07;;;;;;;5.87;70.16;103475.06;5094139;28;20039;-67
2022/01/21 10:42:30;;;;;;;12.70;3.60;;;;;;;5.94;69.49;103478.97;5114621;28;20027;-66
2022/01/21 10:44:57;;;;;;;13.90;4.32;;;;;;;5.97;69.75;103484.13;5102011;28;20054;-66
2022/01/21 10:47:31;;;;;;;11.95;3.95;;;;;;;6.04;69.95;103482.50;5113598;28;20527;-66
2022/01/21 10:50:17;;;;;;;13.75;4.47;;;;;;;6.09;69.77;103488.41;5097609;28;20488;-67
2022/01/21 10:52:50;;;;;;;12.82;3.58;;;;;;;6.05;69.97;103478.72;5093141;28;20462;-66
2022/01/21 10:55:35;;;;;;;13.70;4.57;;;;;;;6.00;70.50;103475.56;5093259;28;20483;-66
2022/01/21 10:58:16;;;;;;;11.40;3.90;;;;;;;5.97;70.28;103475.00;5093658;28;20472;-66
2022/01/21 11:01:03;;;;;;;11.82;3.90;;;;;;;5.94;70.49;103476.22;5101087;28;20031;-66
2022/01/21 11:03:31;;;;;;;16.45;4.25;;;;;;;5.89;70.86;103484.94;5107508;28;20402;-66
2022/01/21 11:06:13;;;;;;;20.58;4.05;;;;;;;5.88;71.55;103474.03;5097309;28;20367;-66
2022/01/21 11:08:38;;;;;;;15.23;4.20;;;;;;;5.82;71.70;103467.28;5105860;28;20364;-66
2022/01/21 11:11:04;;;;;;;12.18;3.92;;;;;;;5.80;72.71;103461.03;5100481;28;20080;-66
2022/01/21 11:13:31;;;;;;;14.32;4.25;;;;;;;5.74;72.50;103452.53;5110959;28;20032;-66
2022/01/21 11:16:03;;;;;;;15.40;4.28;;;;;;;5.73;74.00;103456.31;5103227;28;20415;-66
2022/01/21 11:18:30;;;;;;;16.98;4.50;;;;;;;5.83;73.25;103457.13;5109864;28;20031;-68
2022/01/21 11:21:08;;;;;;;13.18;4.32;;;;;;;5.82;73.55;103444.38;5110521;28;20046;-66
2022/01/21 11:23:35;;;;;;;17.75;4.85;;;;;;;5.87;73.74;103425.47;5099955;28;20064;-66
2022/01/21 11:26:08;;;;;;;12.95;5.13;;;;;;;5.89;74.55;103426.16;5094947;28;20502;-67
2022/01/21 11:28:33;;;;;;;18.30;4.82;;;;;;;5.92;73.90;103425.88;5098810;28;20031;-66
2022/01/21 11:30:58;;;;;;;14.85;4.93;;;;;;;5.90;73.41;103419.63;5110385;28;20023;-66
2022/01/21 11:33:23;;;;;;;16.30;4.57;;;;;;;5.89;73.49;103412.38;5110793;28;20032;-67
2022/01/21 11:35:50;;;;;;;14.32;4.95;;;;;;;5.89;73.69;103412.38;5104267;28;20497;-67
2022/01/21 11:38:17;;;;;;;13.02;4.53;;;;;;;5.89;73.46;103412.38;5097660;28;20068;-67
2022/01/21 11:40:43;;;;;;;15.13;4.25;;;;;;;5.87;73.14;103411.69;5102812;28;20107;-67
2022/01/21 11:43:10;;;;;;;19.30;5.47;;;;;;;5.84;73.22;103411.97;5104021;28;20042;-66
2022/01/21 11:50:45;;;;;;;15.25;4.60;;;;;;;5.82;73.59;103416.81;5110483;28;20055;-67
2022/01/21 11:53:11;;;;;;;12.05;4.05;;;;;;;5.83;73.83;103418.53;5104446;28;20110;-68
2022/01/21 11:55:46;;;;;;;15.45;4.85;;;;;;;5.82;73.85;103414.06;5094405;28;20450;-67
2022/01/21 11:58:23;;;;;;;17.23;4.72;;;;;;;5.82;73.69;103405.78;5095609;28;20024;-67
2022/01/21 12:00:51;;;;;;;19.35;4.88;;;;;;;5.81;74.28;103402.13;5098191;28;20024;-68
2022/01/21 12:03:21;;;;;;;14.02;4.40;;;;;;;5.80;73.81;103407.81;5091894;28;20112;-67
2022/01/21 12:05:46;;;;;;;15.18;5.50;;;;;;;5.83;73.89;103413.03;5099907;28;20455;-66
2022/01/21 12:08:11;;;;;;;12.93;4.22;;;;;;;5.84;73.62;103410.09;5105575;28;20046;-66
2022/01/21 12:10:46;;;;;;;17.65;4.95;;;;;;;5.87;73.59;103411.69;5099902;28;20124;-71
2022/01/21 12:13:25;;;;;;;20.30;4.10;;;;;;;5.87;73.74;103392.38;5104166;28;20031;-67
2022/01/21 12:16:18;;;;;;;11.65;4.00;;;;;;;5.88;73.86;103399.63;5099664;28;20117;-68